Time;durP1;ratioP1;P1;durP2;ratioP2;P2;SDS_P1;SDS_P2;PMS_P1;PMS_P2;Temp;Humidity;BMP_temperature;BMP_pressure;BME280_temperature;BME280_humidity;BME280_pressure;Samples;Min_cycle;Max_cycle;Signal;HPM_P1;HPM_P2
2022/04/20 00:01:49;;;;;;;;;;;;;;;;;;4982660;28;20008;-83
2022/04/20 00:04:16;;;;;;;;;;;;;;;;;;4989859;28;19933;-83
2022/04/20 00:06:58;;;;;;;;;;;;;;;;;;5003785;28;19932;-83
2022/04/20 00:09:26;;;;;;;;;;;;;;;;;;5005883;28;19925;-83
2022/04/20 00:11:53;;;;;;;;;;;;;;;;;;5000855;28;19928;-83
2022/04/20 00:14:20;;;;;;;;;;;;;;;;;;5009500;28;19975;-83
2022/04/20 00:16:49;;;;;;;;;;;;;;;;;;5003940;28;19925;-83
2022/04/20 00:19:15;;;;;;;;;;;;;;;;;;5006350;28;19933;-83
2022/04/20 00:21:42;;;;;;;;;;;;;;;;;;5005648;28;19956;-83
2022/04/20 00:24:09;;;;;;;;;;;;;;;;;;4983999;28;21033;-83
2022/04/20 00:26:35;;;;;;;;;;;;;;;;;;4990790;28;19940;-82
2022/04/20 00:29:02;;;;;;;;;;;;;;;;;;4987061;28;20284;-83
2022/04/20 00:31:28;;;;;;;;;;;;;;;;;;4990144;28;20335;-83
2022/04/20 00:33:57;;;;;;;;;;;;;;;;;;4999235;28;19940;-83
2022/04/20 00:36:25;;;;;;;;;;;;;;;;;;4985311;28;19932;-82
2022/04/20 00:38:51;;;;;;;;;;;;;;;;;;4977512;28;19940;-83
2022/04/20 00:41:21;;;;;;;;;;;;;;;;;;4972546;28;20406;-83
2022/04/20 00:43:58;;;;;;;;;;;;;;;;;;4965850;28;19935;-83
2022/04/20 00:46:25;;;;;;;;;;;;;;;;;;4988560;28;19925;-83
2022/04/20 00:48:52;;;;;;;;;;;;;;;;;;4997894;28;20302;-83
2022/04/20 00:51:19;;;;;;;;;;;;;;;;;;4986635;28;19929;-83
2022/04/20 00:53:45;;;;;;;;;;;;;;;;;;5003496;28;19936;-83
2022/04/20 00:56:12;;;;;;;;;;;;;;;;;;4982114;28;20393;-83
2022/04/20 00:58:38;;;;;;;;;;;;;;;;;;4972508;28;19935;-83
2022/04/20 01:01:05;;;;;;;;;;;;;;;;;;4983248;28;21320;-83
2022/04/20 01:03:34;;;;;;;;;;;;;;;;;;5010633;28;20019;-83
2022/04/20 01:06:00;;;;;;;;;;;;;;;;;;4988308;28;19929;-83
2022/04/20 01:08:28;;;;;;;;;;;;;;;;;;4992586;28;19925;-83
2022/04/20 01:10:56;;;;;;;;;;;;;;;;;;4987403;28;19979;-84
2022/04/20 01:13:23;;;;;;;;;;;;;;;;;;5008129;28;19929;-83
2022/04/20 01:15:49;;;;;;;;;;;;;;;;;;4972029;28;19972;-83
2022/04/20 01:18:30;;;;;;;;;;;;;;;;;;4983149;28;20015;-83
2022/04/20 01:20:57;;;;;;;;;;;;;;;;;;4969465;28;19933;-83
2022/04/20 01:23:24;;;;;;;;;;;;;;;;;;4953544;28;19964;-83
2022/04/20 01:25:51;;;;;;;;;;;;;;;;;;4984815;28;19925;-83
2022/04/20 01:28:18;;;;;;;;;;;;;;;;;;4996045;28;19932;-83
2022/04/20 01:30:45;;;;;;;;;;;;;;;;;;4980071;28;19921;-83
2022/04/20 01:33:12;;;;;;;;;;;;;;;;;;4990871;28;19921;-83
2022/04/20 01:35:43;;;;;;;;;;;;;;;;;;4995919;28;19929;-83
2022/04/20 01:38:10;;;;;;;;;;;;;;;;;;4957033;28;20888;-83
2022/04/20 01:40:37;;;;;;;;;;;;;;;;;;4990800;28;21828;-83
2022/04/20 01:43:04;;;;;;;;;;;;;;;;;;4986816;28;20003;-83
2022/04/20 01:45:31;;;;;;;;;;;;;;;;;;4993352;28;19927;-83
2022/04/20 01:47:59;;;;;;;;;;;;;;;;;;4988303;28;19921;-83
2022/04/20 01:50:26;;;;;;;;;;;;;;;;;;5013495;28;20291;-83
2022/04/20 01:52:52;;;;;;;;;;;;;;;;;;4996261;28;19968;-83
2022/04/20 01:55:18;;;;;;;;;;;;;;;;;;4999655;28;19922;-83
2022/04/20 01:57:45;;;;;;;;;;;;;;;;;;5017092;28;20652;-83
2022/04/20 02:00:19;;;;;;;;;;;;;;;;;;5015758;28;19976;-83
2022/04/20 02:02:46;;;;;;;;;;;;;;;;;;5014781;28;19925;-83
2022/04/20 02:05:13;;;;;;;;;;;;;;;;;;5010373;28;19929;-83
2022/04/20 02:07:41;;;;;;;;;;;;;;;;;;5018032;28;19936;-82
2022/04/20 02:10:07;;;;;;;;;;;;;;;;;;5017805;28;20063;-83
2022/04/20 02:12:35;;;;;;;;;;;;;;;;;;5017078;28;19933;-83
2022/04/20 02:15:02;;;;;;;;;;;;;;;;;;5008986;28;19921;-83
2022/04/20 02:17:29;;;;;;;;;;;;;;;;;;5020248;28;20398;-82
2022/04/20 02:19:57;;;;;;;;;;;;;;;;;;4992692;28;20307;-83
2022/04/20 02:22:24;;;;;;;;;;;;;;;;;;5013161;28;19929;-83
2022/04/20 02:24:50;;;;;;;;;;;;;;;;;;4992351;28;20007;-82
2022/04/20 02:27:16;;;;;;;;;;;;;;;;;;5017242;28;19944;-83
2022/04/20 02:29:42;;;;;;;;;;;;;;;;;;4993907;28;19929;-83
2022/04/20 02:32:10;;;;;;;;;;;;;;;;;;5013362;28;19929;-83
2022/04/20 02:34:37;;;;;;;;;;;;;;;;;;5014805;28;19979;-83
2022/04/20 02:37:04;;;;;;;;;;;;;;;;;;4977714;28;19929;-83
2022/04/20 02:39:32;;;;;;;;;;;;;;;;;;5028416;28;19958;-83
2022/04/20 02:41:59;;;;;;;;;;;;;;;;;;5010790;28;19936;-82
2022/04/20 02:44:26;;;;;;;;;;;;;;;;;;5009207;28;19975;-82
2022/04/20 02:46:54;;;;;;;;;;;;;;;;;;5008872;28;19971;-83
2022/04/20 02:49:21;;;;;;;;;;;;;;;;;;5015997;28;19929;-83
2022/04/20 02:51:47;;;;;;;;;;;;;;;;;;5015298;28;20665;-83
2022/04/20 02:54:19;;;;;;;;;;;;;;;;;;5011216;28;19921;-83
2022/04/20 02:56:45;;;;;;;;;;;;;;;;;;5026988;28;19929;-83
2022/04/20 02:59:18;;;;;;;;;;;;;;;;;;4992313;28;19995;-83
2022/04/20 03:01:45;;;;;;;;;;;;;;;;;;5012408;28;21682;-83
2022/04/20 03:04:12;;;;;;;;;;;;;;;;;;5010832;28;19929;-83
2022/04/20 03:06:39;;;;;;;;;;;;;;;;;;4996340;28;19925;-83
2022/04/20 03:09:05;;;;;;;;;;;;;;;;;;5024463;28;19921;-83
2022/04/20 03:11:33;;;;;;;;;;;;;;;;;;5028791;28;20287;-83
2022/04/20 03:14:00;;;;;;;;;;;;;;;;;;5007095;28;19929;-83
2022/04/20 03:16:27;;;;;;;;;;;;;;;;;;5013048;28;19932;-82
2022/04/20 03:18:55;;;;;;;;;;;;;;;;;;5021454;28;19936;-83
2022/04/20 03:21:21;;;;;;;;;;;;;;;;;;5027797;28;19931;-83
2022/04/20 03:23:50;;;;;;;;;;;;;;;;;;4998016;28;19921;-82
2022/04/20 03:26:16;;;;;;;;;;;;;;;;;;5018770;28;19921;-83
2022/04/20 03:28:43;;;;;;;;;;;;;;;;;;5029127;28;20372;-83
2022/04/20 03:31:10;;;;;;;;;;;;;;;;;;4993601;28;19929;-83
2022/04/20 03:33:38;;;;;;;;;;;;;;;;;;5027655;28;19937;-83
2022/04/20 03:36:06;;;;;;;;;;;;;;;;;;5000454;28;19929;-83
2022/04/20 03:38:33;;;;;;;;;;;;;;;;;;5010167;28;19925;-82
2022/04/20 03:41:00;;;;;;;;;;;;;;;;;;5000891;28;19936;-82
2022/04/20 03:43:28;;;;;;;;;;;;;;;;;;5014995;28;19921;-83
2022/04/20 03:45:55;;;;;;;;;;;;;;;;;;5007795;28;20390;-82
2022/04/20 03:48:23;;;;;;;;;;;;;;;;;;5009058;28;19925;-82
2022/04/20 03:51:08;;;;;;;;;;;;;;;;;;4971679;28;21949;-82
2022/04/20 03:53:36;;;;;;;;;;;;;;;;;;4975472;28;20391;-82
2022/04/20 03:56:03;;;;;;;;;;;;;;;;;;4990161;28;19925;-83
2022/04/20 03:58:29;;;;;;;;;;;;;;;;;;4982892;28;19926;-83
2022/04/20 04:01:10;;;;;;;;;;;;;;;;;;4930616;28;20391;-83
2022/04/20 04:03:37;;;;;;;;;;;;;;;;;;4938191;28;19922;-82
2022/04/20 04:06:03;;;;;;;;;;;;;;;;;;4915102;28;19926;-83
2022/04/20 04:08:36;;;;;;;;;;;;;;;;;;4924925;28;19937;-82
2022/04/20 04:11:04;;;;;;;;;;;;;;;;;;4917218;28;20317;-83
2022/04/20 04:13:29;;;;;;;;;;;;;;;;;;4922977;29;19950;-82
2022/04/20 04:16:12;;;;;;;;;;;;;;;;;;4904507;29;20434;-83
2022/04/20 04:18:39;;;;;;;;;;;;;;;;;;4912721;29;19926;-82
2022/04/20 04:21:05;;;;;;;;;;;;;;;;;;4892217;29;19941;-83
2022/04/20 04:23:32;;;;;;;;;;;;;;;;;;4897641;29;19930;-83
2022/04/20 04:25:59;;;;;;;;;;;;;;;;;;4906768;29;19938;-83
2022/04/20 04:28:25;;;;;;;;;;;;;;;;;;4889144;29;20118;-82
2022/04/20 04:30:53;;;;;;;;;;;;;;;;;;4891340;29;20013;-83
2022/04/20 04:33:20;;;;;;;;;;;;;;;;;;4950309;28;20308;-83
2022/04/20 04:35:50;;;;;;;;;;;;;;;;;;4960971;28;20462;-83
2022/04/20 04:38:17;;;;;;;;;;;;;;;;;;4959520;28;19930;-83
2022/04/20 04:40:44;;;;;;;;;;;;;;;;;;4974579;28;19981;-83
2022/04/20 04:43:11;;;;;;;;;;;;;;;;;;4957120;28;20376;-83
2022/04/20 04:48:39;;;;;;;;;;;;;;;;;;4996723;28;19936;-83
2022/04/20 04:51:05;;;;;;;;;;;;;;;;;;4991309;28;19948;-83
2022/04/20 04:53:32;;;;;;;;;;;;;;;;;;5012325;28;19925;-83
2022/04/20 04:56:00;;;;;;;;;;;;;;;;;;4992543;28;20019;-83
2022/04/20 04:58:27;;;;;;;;;;;;;;;;;;4996015;28;19936;-83
2022/04/20 05:00:54;;;;;;;;;;;;;;;;;;4985884;28;19968;-83
2022/04/20 05:03:36;;;;;;;;;;;;;;;;;;5011829;28;20394;-83
2022/04/20 05:06:03;;;;;;;;;;;;;;;;;;4996354;28;19964;-83
2022/04/20 05:08:29;;;;;;;;;;;;;;;;;;4999569;28;19936;-83
2022/04/20 05:10:56;;;;;;;;;;;;;;;;;;5005431;28;20426;-83
2022/04/20 05:13:22;;;;;;;;;;;;;;;;;;5009244;28;19925;-83
2022/04/20 05:15:49;;;;;;;;;;;;;;;;;;5010608;28;19929;-83
2022/04/20 05:18:16;;;;;;;;;;;;;;;;;;5010131;28;20482;-83
2022/04/20 05:20:44;;;;;;;;;;;;;;;;;;5010038;28;20307;-82
2022/04/20 05:23:11;;;;;;;;;;;;;;;;;;4995405;28;20400;-83
2022/04/20 05:25:57;;;;;;;;;;;;;;;;;;4998772;28;19923;-83
2022/04/20 05:28:24;;;;;;;;;;;;;;;;;;4995794;28;19928;-82
2022/04/20 05:30:51;;;;;;;;;;;;;;;;;;5011584;28;19935;-83
2022/04/20 05:33:19;;;;;;;;;;;;;;;;;;4997682;28;20662;-83
2022/04/20 05:35:46;;;;;;;;;;;;;;;;;;5024768;28;19937;-83
2022/04/20 05:43:42;;;;;;;;;;;;;;;;;;5018473;28;20002;-83
2022/04/20 05:46:09;;;;;;;;;;;;;;;;;;5011881;28;20477;-82
2022/04/20 05:48:37;;;;;;;;;;;;;;;;;;5014113;28;19929;-82
2022/04/20 05:51:05;;;;;;;;;;;;;;;;;;5009753;28;19971;-82
2022/04/20 05:53:32;;;;;;;;;;;;;;;;;;5017112;28;20287;-82
2022/04/20 05:56:00;;;;;;;;;;;;;;;;;;4999609;28;19928;-82
2022/04/20 05:58:26;;;;;;;;;;;;;;;;;;5031476;28;19925;-82
2022/04/20 06:00:56;;;;;;;;;;;;;;;;;;5030089;28;19925;-82
2022/04/20 06:03:23;;;;;;;;;;;;;;;;;;5018477;28;20322;-82
2022/04/20 06:05:53;;;;;;;;;;;;;;;;;;5010747;28;20014;-83
2022/04/20 06:08:19;;;;;;;;;;;;;;;;;;5016474;28;19925;-82
2022/04/20 06:10:46;;;;;;;;;;;;;;;;;;5009625;28;20015;-82
2022/04/20 06:13:12;;;;;;;;;;;;;;;;;;5028213;28;20376;-83
2022/04/20 06:15:54;;;;;;;;;;;;;;;;;;4988457;28;19936;-82
2022/04/20 06:18:22;;;;;;;;;;;;;;;;;;4990879;28;19933;-83
2022/04/20 06:20:55;;;;;;;;;;;;;;;;;;4965776;28;20354;-82
2022/04/20 06:23:22;;;;;;;;;;;;;;;;;;4984697;28;20028;-83
2022/04/20 06:25:49;;;;;;;;;;;;;;;;;;4983239;28;19926;-83
2022/04/20 06:28:16;;;;;;;;;;;;;;;;;;4987090;28;19961;-83
2022/04/20 06:30:43;;;;;;;;;;;;;;;;;;4964665;28;19936;-83
2022/04/20 06:33:10;;;;;;;;;;;;;;;;;;4967441;28;20601;-83
2022/04/20 06:35:36;;;;;;;;;;;;;;;;;;4977914;28;19968;-83
2022/04/20 06:38:03;;;;;;;;;;;;;;;;;;4984018;28;20020;-82
2022/04/20 06:40:29;;;;;;;;;;;;;;;;;;4971892;28;19933;-83
2022/04/20 06:42:56;;;;;;;;;;;;;;;;;;4969310;28;19929;-83
2022/04/20 06:45:32;;;;;;;;;;;;;;;;;;4977389;28;19929;-83
2022/04/20 06:47:59;;;;;;;;;;;;;;;;;;4973920;28;20451;-83
2022/04/20 06:50:26;;;;;;;;;;;;;;;;;;4989635;28;19925;-83
2022/04/20 06:58:39;;;;;;;;;;;;;;;;;;4992080;28;19960;-83
2022/04/20 07:01:08;;;;;;;;;;;;;;;;;;5011218;28;21559;-83
2022/04/20 07:03:35;;;;;;;;;;;;;;;;;;4993715;28;20342;-84
2022/04/20 07:06:02;;;;;;;;;;;;;;;;;;4971401;28;19930;-83
2022/04/20 07:08:28;;;;;;;;;;;;;;;;;;5000073;28;19979;-83
2022/04/20 07:10:54;;;;;;;;;;;;;;;;;;4976178;28;19928;-83
2022/04/20 07:13:21;;;;;;;;;;;;;;;;;;5012887;28;19929;-83
2022/04/20 07:15:49;;;;;;;;;;;;;;;;;;4992249;28;19921;-83
2022/04/20 07:18:30;;;;;;;;;;;;;;;;;;4968190;28;19972;-83
2022/04/20 07:20:56;;;;;;;;;;;;;;;;;;4965160;28;19969;-84
2022/04/20 07:23:23;;;;;;;;;;;;;;;;;;4974895;28;19929;-83
2022/04/20 07:25:51;;;;;;;;;;;;;;;;;;4967659;28;20065;-84
2022/04/20 07:28:17;;;;;;;;;;;;;;;;;;4972217;28;20403;-84
2022/04/20 07:30:44;;;;;;;;;;;;;;;;;;4972389;28;20262;-83
2022/04/20 07:33:11;;;;;;;;;;;;;;;;;;4966763;28;20451;-84
2022/04/20 07:35:42;;;;;;;;;;;;;;;;;;4980716;28;19941;-84
2022/04/20 07:38:12;;;;;;;;;;;;;;;;;;4968005;28;19976;-84
2022/04/20 07:40:39;;;;;;;;;;;;;;;;;;4994225;28;20020;-84
2022/04/20 07:43:05;;;;;;;;;;;;;;;;;;4974753;28;19929;-84
2022/04/20 07:45:33;;;;;;;;;;;;;;;;;;4995165;28;20768;-84
2022/04/20 07:48:00;;;;;;;;;;;;;;;;;;4986337;28;20422;-84
2022/04/20 07:50:26;;;;;;;;;;;;;;;;;;5013172;28;19929;-84
2022/04/20 07:52:54;;;;;;;;;;;;;;;;;;4993186;28;19925;-84
2022/04/20 07:55:20;;;;;;;;;;;;;;;;;;5018993;28;19936;-84
2022/04/20 07:57:47;;;;;;;;;;;;;;;;;;4984767;28;20051;-84
2022/04/20 08:00:14;;;;;;;;;;;;;;;;;;5006507;28;19925;-84
2022/04/20 08:02:40;;;;;;;;;;;;;;;;;;5000521;28;20012;-84
2022/04/20 08:05:08;;;;;;;;;;;;;;;;;;4992036;28;19929;-84
2022/04/20 08:07:34;;;;;;;;;;;;;;;;;;4992600;28;19971;-85
2022/04/20 08:10:02;;;;;;;;;;;;;;;;;;4988680;28;19932;-84
2022/04/20 08:12:29;;;;;;;;;;;;;;;;;;4996989;28;19928;-84
2022/04/20 08:14:55;;;;;;;;;;;;;;;;;;4993528;28;19921;-85
2022/04/20 08:17:22;;;;;;;;;;;;;;;;;;4996467;28;19929;-84
2022/04/20 08:19:48;;;;;;;;;;;;;;;;;;4992273;28;19929;-85
2022/04/20 08:22:17;;;;;;;;;;;;;;;;;;4996364;28;19921;-84
2022/04/20 08:24:45;;;;;;;;;;;;;;;;;;4997521;28;19936;-84
2022/04/20 08:27:14;;;;;;;;;;;;;;;;;;4978805;28;20360;-84
2022/04/20 08:29:42;;;;;;;;;;;;;;;;;;4995595;28;19922;-83
2022/04/20 08:32:09;;;;;;;;;;;;;;;;;;4990397;28;19929;-83
2022/04/20 08:34:35;;;;;;;;;;;;;;;;;;4994374;28;19921;-83
2022/04/20 08:37:02;;;;;;;;;;;;;;;;;;4992410;28;19996;-83
2022/04/20 08:39:28;;;;;;;;;;;;;;;;;;4998929;28;20392;-83
2022/04/20 08:41:55;;;;;;;;;;;;;;;;;;4976138;28;19960;-83
2022/04/20 08:44:23;;;;;;;;;;;;;;;;;;4994904;28;19988;-83
2022/04/20 08:46:49;;;;;;;;;;;;;;;;;;4980141;28;19944;-83
2022/04/20 08:49:16;;;;;;;;;;;;;;;;;;4997712;28;19948;-83
2022/04/20 08:54:28;;;;;;;;;;;;;;;;;;4997111;28;19921;-83
2022/04/20 08:59:42;;;;;;;;;;;;;;;;;;5001384;28;19983;-83
2022/04/20 09:02:08;;;;;;;;;;;;;;;;;;4992249;28;22976;-83
2022/04/20 09:04:34;;;;;;;;;;;;;;;;;;4995972;28;19974;-83
2022/04/20 09:07:01;;;;;;;;;;;;;;;;;;5012338;28;19921;-82
2022/04/20 09:09:29;;;;;;;;;;;;;;;;;;4995994;28;19929;-83
2022/04/20 09:11:59;;;;;;;;;;;;;;;;;;4992495;28;20002;-84
2022/04/20 09:14:33;;;;;;;;;;;;;;;;;;4983804;28;20318;-83
2022/04/20 09:17:03;;;;;;;;;;;;;;;;;;4994681;28;19921;-83
2022/04/20 09:19:31;;;;;;;;;;;;;;;;;;4998734;28;20035;-83
2022/04/20 09:21:58;;;;;;;;;;;;;;;;;;4991967;28;19925;-83
2022/04/20 09:24:25;;;;;;;;;;;;;;;;;;4999749;28;19925;-83
2022/04/20 09:26:53;;;;;;;;;;;;;;;;;;4981215;28;19967;-83
2022/04/20 09:29:20;;;;;;;;;;;;;;;;;;4996994;28;19925;-83
2022/04/20 09:31:47;;;;;;;;;;;;;;;;;;4997122;28;19929;-83
2022/04/20 09:34:14;;;;;;;;;;;;;;;;;;5000755;28;20035;-83
2022/04/20 09:36:42;;;;;;;;;;;;;;;;;;5001467;28;20053;-84
2022/04/20 09:39:11;;;;;;;;;;;;;;;;;;4996209;28;21445;-83
2022/04/20 09:41:38;;;;;;;;;;;;;;;;;;5000332;28;19928;-83
2022/04/20 09:44:05;;;;;;;;;;;;;;;;;;4999786;28;19960;-83
2022/04/20 09:49:21;;;;;;;;;;;;;;;;;;5003133;28;19928;-83
2022/04/20 09:51:48;;;;;;;;;;;;;;;;;;5004752;28;19928;-83
2022/04/20 09:54:36;;;;;;;;;;;;;;;;;;5005467;28;19975;-84
2022/04/20 09:57:04;;;;;;;;;;;;;;;;;;5029941;28;19925;-83
2022/04/20 09:59:30;;;;;;;;;;;;;;;;;;5000671;28;20024;-83
2022/04/20 10:01:58;;;;;;;;;;;;;;;;;;4996883;28;19933;-83
2022/04/20 10:04:25;;;;;;;;;;;;;;;;;;5021751;28;20325;-84
2022/04/20 10:07:11;;;;;;;;;;;;;;;;;;4974136;28;21954;-83
2022/04/20 10:09:53;;;;;;;;;;;;;;;;;;4959147;28;19930;-84
2022/04/20 10:12:19;;;;;;;;;;;;;;;;;;4959971;28;20024;-83
2022/04/20 10:17:34;;;;;;;;;;;;;;;;;;4944265;28;19929;-83
2022/04/20 10:20:04;;;;;;;;;;;;;;;;;;4953546;28;19973;-83
2022/04/20 10:22:34;;;;;;;;;;;;;;;;;;4935801;28;20350;-83
2022/04/20 10:25:01;;;;;;;;;;;;;;;;;;4935779;28;19969;-83
2022/04/20 10:27:27;;;;;;;;;;;;;;;;;;4936190;28;19922;-83
2022/04/20 10:29:53;;;;;;;;;;;;;;;;;;4935706;28;19926;-83
2022/04/20 10:32:22;;;;;;;;;;;;;;;;;;4942473;28;19926;-83
2022/04/20 10:34:52;;;;;;;;;;;;;;;;;;4954591;28;20381;-83
2022/04/20 10:37:25;;;;;;;;;;;;;;;;;;4972878;28;19934;-83
2022/04/20 10:39:53;;;;;;;;;;;;;;;;;;4955731;28;19974;-83
2022/04/20 10:42:19;;;;;;;;;;;;;;;;;;4999342;28;19983;-83
2022/04/20 10:44:46;;;;;;;;;;;;;;;;;;5001827;28;20698;-83
2022/04/20 10:47:13;;;;;;;;;;;;;;;;;;5008322;28;19929;-83
2022/04/20 10:49:40;;;;;;;;;;;;;;;;;;4983936;28;19921;-83
2022/04/20 10:52:08;;;;;;;;;;;;;;;;;;5008746;28;19925;-83
2022/04/20 10:54:34;;;;;;;;;;;;;;;;;;4999901;28;20525;-83
2022/04/20 10:57:02;;;;;;;;;;;;;;;;;;4993398;28;19948;-83
2022/04/20 10:59:32;;;;;;;;;;;;;;;;;;5016872;28;19996;-83
2022/04/20 11:02:15;;;;;;;;;;;;;;;;;;5013557;28;20330;-83
2022/04/20 11:05:03;;;;;;;;;;;;;;;;;;4991126;28;19930;-83
2022/04/20 11:07:32;;;;;;;;;;;;;;;;;;4994747;28;19972;-83
2022/04/20 11:10:00;;;;;;;;;;;;;;;;;;4993814;28;20020;-83
2022/04/20 11:20:46;;;;;;;;;;;;;;;;;;4957147;28;19941;-84
2022/04/20 11:23:16;;;;;;;;;;;;;;;;;;4973172;28;19930;-84
2022/04/20 11:25:43;;;;;;;;;;;;;;;;;;4973183;28;19929;-83
2022/04/20 11:28:29;;;;;;;;;;;;;;;;;;4942147;28;21642;-84
2022/04/20 11:30:57;;;;;;;;;;;;;;;;;;4950709;28;19937;-84
2022/04/20 11:33:25;;;;;;;;;;;;;;;;;;4941435;28;20013;-84
2022/04/20 11:35:51;;;;;;;;;;;;;;;;;;4935374;28;19925;-84
2022/04/20 11:38:17;;;;;;;;;;;;;;;;;;4996362;28;19926;-84
2022/04/20 11:40:45;;;;;;;;;;;;;;;;;;4951741;28;20769;-84
2022/04/20 11:43:14;;;;;;;;;;;;;;;;;;4958050;28;19937;-82
2022/04/20 11:45:41;;;;;;;;;;;;;;;;;;4959578;28;19929;-84
2022/04/20 11:48:10;;;;;;;;;;;;;;;;;;4989256;28;20431;-82
2022/04/20 11:50:47;;;;;;;;;;;;;;;;;;4962083;28;19926;-82
2022/04/20 11:53:15;;;;;;;;;;;;;;;;;;4971764;28;19926;-82
2022/04/20 11:55:46;;;;;;;;;;;;;;;;;;4978521;28;20343;-82
2022/04/20 11:58:13;;;;;;;;;;;;;;;;;;4973124;28;19926;-83
2022/04/20 12:00:41;;;;;;;;;;;;;;;;;;4962661;28;19976;-83
2022/04/20 12:03:07;;;;;;;;;;;;;;;;;;4957930;28;19934;-83
2022/04/20 12:05:53;;;;;;;;;;;;;;;;;;4987665;28;19968;-83
2022/04/20 12:08:19;;;;;;;;;;;;;;;;;;4992468;28;19926;-83
2022/04/20 12:10:47;;;;;;;;;;;;;;;;;;4980562;28;19930;-83
2022/04/20 12:13:14;;;;;;;;;;;;;;;;;;4969331;28;19921;-83
2022/04/20 12:15:41;;;;;;;;;;;;;;;;;;4998529;28;19925;-83
2022/04/20 12:18:07;;;;;;;;;;;;;;;;;;4995603;28;19929;-83
2022/04/20 12:20:33;;;;;;;;;;;;;;;;;;4995315;28;19921;-83
2022/04/20 12:23:16;;;;;;;;;;;;;;;;;;5013630;28;19928;-82
2022/04/20 12:25:44;;;;;;;;;;;;;;;;;;4997673;28;19921;-82
2022/04/20 12:30:56;;;;;;;;;;;;;;;;;;4989470;28;19993;-82
2022/04/20 12:33:23;;;;;;;;;;;;;;;;;;5012077;28;19982;-81
2022/04/20 12:35:51;;;;;;;;;;;;;;;;;;5009455;28;19960;-81
2022/04/20 12:38:18;;;;;;;;;;;;;;;;;;5021599;28;20378;-81
2022/04/20 12:40:45;;;;;;;;;;;;;;;;;;5013874;28;19929;-81
2022/04/20 12:43:12;;;;;;;;;;;;;;;;;;5009674;28;19928;-82
2022/04/20 12:45:39;;;;;;;;;;;;;;;;;;5017540;28;19972;-81
2022/04/20 12:48:06;;;;;;;;;;;;;;;;;;5009302;28;19967;-81
2022/04/20 12:50:34;;;;;;;;;;;;;;;;;;5010760;28;19925;-81
2022/04/20 12:53:01;;;;;;;;;;;;;;;;;;4986799;28;19967;-81
2022/04/20 12:55:28;;;;;;;;;;;;;;;;;;5007401;28;19929;-81
2022/04/20 13:03:28;;;;;;;;;;;;;;;;;;5008366;28;19936;-82
2022/04/20 13:05:55;;;;;;;;;;;;;;;;;;5013605;28;20016;-81
2022/04/20 13:08:21;;;;;;;;;;;;;;;;;;5010819;28;19921;-82
2022/04/20 13:10:51;;;;;;;;;;;;;;;;;;4996309;28;19925;-82
2022/04/20 13:13:27;;;;;;;;;;;;;;;;;;5020963;28;19935;-81
2022/04/20 13:15:55;;;;;;;;;;;;;;;;;;4995145;28;19968;-81
2022/04/20 13:18:21;;;;;;;;;;;;;;;;;;4997346;28;19933;-82
2022/04/20 13:20:49;;;;;;;;;;;;;;;;;;4994986;28;20410;-81
2022/04/20 13:23:17;;;;;;;;;;;;;;;;;;4999841;28;19929;-81
2022/04/20 13:28:44;;;;;;;;;;;;;;;;;;5010589;28;19932;-81
2022/04/20 13:31:26;;;;;;;;;;;;;;;;;;4958842;28;19922;-82
2022/04/20 13:33:52;;;;;;;;;;;;;;;;;;4955439;28;19961;-81
2022/04/20 13:36:20;;;;;;;;;;;;;;;;;;4935050;28;19926;-81
2022/04/20 13:38:47;;;;;;;;;;;;;;;;;;4932267;28;19970;-82
2022/04/20 13:41:17;;;;;;;;;;;;;;;;;;4933717;28;19930;-82
2022/04/20 13:43:45;;;;;;;;;;;;;;;;;;4938589;28;20016;-82
2022/04/20 13:46:12;;;;;;;;;;;;;;;;;;4935519;28;20236;-82
2022/04/20 13:48:59;;;;;;;;;;;;;;;;;;4916111;28;19974;-82
2022/04/20 13:51:26;;;;;;;;;;;;;;;;;;4936160;28;20267;-82
2022/04/20 13:53:53;;;;;;;;;;;;;;;;;;4914512;28;19927;-82
2022/04/20 13:56:20;;;;;;;;;;;;;;;;;;4933219;28;20538;-82
2022/04/20 13:58:48;;;;;;;;;;;;;;;;;;4922285;28;19927;-82
2022/04/20 14:01:34;;;;;;;;;;;;;;;;;;4888051;28;19930;-82
2022/04/20 14:04:01;;;;;;;;;;;;;;;;;;4933873;28;19931;-82
2022/04/20 14:06:29;;;;;;;;;;;;;;;;;;4917463;28;19934;-82
2022/04/20 14:08:56;;;;;;;;;;;;;;;;;;4931420;28;19949;-82
2022/04/20 14:11:24;;;;;;;;;;;;;;;;;;4937494;28;19931;-82
2022/04/20 14:13:52;;;;;;;;;;;;;;;;;;4930965;28;19931;-82
2022/04/20 14:16:19;;;;;;;;;;;;;;;;;;4937531;28;19922;-82
2022/04/20 14:18:46;;;;;;;;;;;;;;;;;;4935784;28;20313;-82
2022/04/20 14:21:28;;;;;;;;;;;;;;;;;;4939687;28;19977;-82
2022/04/20 14:23:56;;;;;;;;;;;;;;;;;;4931317;28;19931;-82
2022/04/20 14:32:12;;;;;;;;;;;;;;;;;;4936340;28;20031;-82
2022/04/20 14:34:42;;;;;;;;;;;;;;;;;;4942614;28;19937;-82
2022/04/20 14:37:09;;;;;;;;;;;;;;;;;;4931723;28;19941;-81
2022/04/20 14:39:37;;;;;;;;;;;;;;;;;;4971440;28;19929;-82
2022/04/20 14:42:03;;;;;;;;;;;;;;;;;;4947977;28;20755;-80
2022/04/20 14:44:46;;;;;;;;;;;;;;;;;;4932025;28;19930;-81
2022/04/20 14:47:13;;;;;;;;;;;;;;;;;;4924718;28;19926;-81
2022/04/20 14:49:40;;;;;;;;;;;;;;;;;;4929387;28;19927;-81
2022/04/20 14:52:10;;;;;;;;;;;;;;;;;;4932961;28;19929;-81
2022/04/20 14:54:37;;;;;;;;;;;;;;;;;;4947080;28;19930;-81
2022/04/20 14:57:04;;;;;;;;;;;;;;;;;;4943443;28;20385;-81
2022/04/20 14:59:31;;;;;;;;;;;;;;;;;;4945728;28;20028;-81
2022/04/20 15:01:58;;;;;;;;;;;;;;;;;;4928815;28;20396;-81
2022/04/20 15:04:24;;;;;;;;;;;;;;;;;;4949591;28;19925;-81
2022/04/20 15:06:53;;;;;;;;;;;;;;;;;;4930849;28;20021;-81
2022/04/20 15:09:21;;;;;;;;;;;;;;;;;;4946821;28;19930;-81
2022/04/20 15:11:48;;;;;;;;;;;;;;;;;;4947759;28;19970;-82
2022/04/20 15:14:16;;;;;;;;;;;;;;;;;;4945925;28;19930;-81
2022/04/20 15:16:48;;;;;;;;;;;;;;;;;;4977906;28;19956;-82
2022/04/20 15:19:17;;;;;;;;;;;;;;;;;;4990147;28;20024;-81
2022/04/20 15:21:45;;;;;;;;;;;;;;;;;;5004997;28;19921;-82
2022/04/20 15:24:15;;;;;;;;;;;;;;;;;;5005101;28;19921;-81
2022/04/20 15:26:43;;;;;;;;;;;;;;;;;;5006809;28;19925;-81
2022/04/20 15:29:13;;;;;;;;;;;;;;;;;;5001915;28;19948;-81
2022/04/20 15:31:40;;;;;;;;;;;;;;;;;;4985955;28;19922;-81
2022/04/20 15:34:08;;;;;;;;;;;;;;;;;;4999260;28;19929;-82
2022/04/20 15:36:36;;;;;;;;;;;;;;;;;;5002235;28;21511;-82
2022/04/20 15:39:05;;;;;;;;;;;;;;;;;;4985072;28;20275;-81
2022/04/20 15:41:32;;;;;;;;;;;;;;;;;;4988197;28;19921;-81
2022/04/20 15:43:58;;;;;;;;;;;;;;;;;;5003475;28;19929;-81
2022/04/20 15:46:40;;;;;;;;;;;;;;;;;;4992639;28;19971;-81
2022/04/20 15:49:11;;;;;;;;;;;;;;;;;;5010187;28;21635;-81
2022/04/20 15:51:38;;;;;;;;;;;;;;;;;;4991945;28;19925;-80
2022/04/20 15:54:05;;;;;;;;;;;;;;;;;;4985232;28;19976;-80
2022/04/20 16:02:10;;;;;;;;;;;;;;;;;;4985511;28;22393;-81
2022/04/20 16:04:53;;;;;;;;;;;;;;;;;;4942504;28;19925;-80
2022/04/20 16:07:20;;;;;;;;;;;;;;;;;;4952289;28;20073;-81
2022/04/20 16:09:47;;;;;;;;;;;;;;;;;;4950582;28;19931;-81
2022/04/20 16:12:30;;;;;;;;;;;;;;;;;;4929641;28;20017;-81
2022/04/20 16:14:59;;;;;;;;;;;;;;;;;;4907092;29;20013;-81
2022/04/20 16:17:30;;;;;;;;;;;;;;;;;;4912484;28;20351;-81
2022/04/20 16:19:57;;;;;;;;;;;;;;;;;;4911316;28;19926;-82
2022/04/20 16:22:25;;;;;;;;;;;;;;;;;;4898447;28;19931;-81
2022/04/20 16:24:52;;;;;;;;;;;;;;;;;;4926760;28;20305;-83
2022/04/20 16:27:19;;;;;;;;;;;;;;;;;;4930283;28;20022;-82
2022/04/20 16:29:46;;;;;;;;;;;;;;;;;;4930820;28;19927;-82
2022/04/20 16:32:13;;;;;;;;;;;;;;;;;;4923822;28;20455;-81
2022/04/20 16:34:41;;;;;;;;;;;;;;;;;;4912030;28;19922;-82
2022/04/20 16:37:07;;;;;;;;;;;;;;;;;;4962326;28;20020;-80
2022/04/20 16:39:36;;;;;;;;;;;;;;;;;;4983113;28;19933;-81
2022/04/20 16:42:03;;;;;;;;;;;;;;;;;;4964230;28;19930;-81
2022/04/20 16:44:31;;;;;;;;;;;;;;;;;;5001990;28;19932;-81
2022/04/20 16:46:58;;;;;;;;;;;;;;;;;;4983844;28;20680;-81
2022/04/20 16:49:25;;;;;;;;;;;;;;;;;;4974141;28;19929;-81
2022/04/20 16:51:53;;;;;;;;;;;;;;;;;;4985179;28;19935;-82
2022/04/20 16:54:20;;;;;;;;;;;;;;;;;;4993759;28;19964;-81
2022/04/20 16:56:47;;;;;;;;;;;;;;;;;;5006650;28;20027;-82
2022/04/20 16:59:28;;;;;;;;;;;;;;;;;;4987795;28;19940;-81
2022/04/20 17:01:56;;;;;;;;;;;;;;;;;;4962933;28;20284;-81
2022/04/20 17:04:24;;;;;;;;;;;;;;;;;;4971776;28;19932;-80
2022/04/20 17:06:55;;;;;;;;;;;;;;;;;;4977253;28;19922;-81
2022/04/20 17:09:42;;;;;;;;;;;;;;;;;;4909495;28;20063;-81
2022/04/20 17:12:27;;;;;;;;;;;;;;;;;;4904506;28;20378;-82
2022/04/20 17:14:55;;;;;;;;;;;;;;;;;;4903586;28;19938;-82
2022/04/20 17:17:21;;;;;;;;;;;;;;;;;;4910429;29;20357;-82
2022/04/20 17:19:47;;;;;;;;;;;;;;;;;;4911756;28;19995;-80
2022/04/20 17:27:58;;;;;;;;;;;;;;;;;;4903337;28;19993;-80
2022/04/20 17:30:25;;;;;;;;;;;;;;;;;;4913335;28;20022;-79
2022/04/20 17:32:53;;;;;;;;;;;;;;;;;;4919238;28;20010;-79
2022/04/20 17:38:32;;;;;;;;;;;;;;;;;;4948351;28;19932;-80
2022/04/20 17:40:58;;;;;;;;;;;;;;;;;;4960755;28;20492;-79
2022/04/20 17:43:25;;;;;;;;;;;;;;;;;;4956607;28;21358;-79
2022/04/20 17:45:53;;;;;;;;;;;;;;;;;;4962166;28;20344;-79
2022/04/20 17:48:20;;;;;;;;;;;;;;;;;;4948348;28;20336;-79
2022/04/20 17:50:47;;;;;;;;;;;;;;;;;;4968393;28;20391;-79
2022/04/20 17:53:17;;;;;;;;;;;;;;;;;;4949396;28;20366;-79
2022/04/20 17:55:44;;;;;;;;;;;;;;;;;;4954214;28;20009;-79
2022/04/20 17:58:12;;;;;;;;;;;;;;;;;;4968663;28;20035;-79
2022/04/20 18:00:39;;;;;;;;;;;;;;;;;;4976785;28;19921;-79